createdAt,value
2023-04-03T00:01:32.897Z,-1.00
2023-04-03T00:04:01.733Z,-0.80
2023-04-03T00:06:30.125Z,-0.90
2023-04-03T00:08:58.265Z,-0.80
2023-04-03T00:11:26.723Z,-0.80
2023-04-03T00:13:55.052Z,-0.90
2023-04-03T00:16:24.711Z,-0.80
2023-04-03T00:18:52.907Z,-0.80
2023-04-03T00:21:21.516Z,-0.90
2023-04-03T00:23:49.892Z,-0.80
2023-04-03T00:26:18.023Z,-0.90
2023-04-03T00:28:46.352Z,-0.90
2023-04-03T00:31:16.711Z,-0.90
2023-04-03T00:33:46.331Z,-0.80
2023-04-03T00:36:14.804Z,-0.90
2023-04-03T00:38:43.133Z,-0.90
2023-04-03T00:41:11.450Z,-0.80
2023-04-03T00:43:39.675Z,-0.80
2023-04-03T00:46:07.980Z,-0.80
2023-04-03T00:48:37.598Z,-0.80
2023-04-03T00:51:08.153Z,-0.80
2023-04-03T00:53:39.699Z,-0.90
2023-04-03T00:56:10.110Z,-0.90
2023-04-03T00:58:40.128Z,-1.00
2023-04-03T01:01:10.260Z,-1.00
2023-04-03T01:03:38.640Z,-1.00
2023-04-03T01:06:08.932Z,-0.90
2023-04-03T01:08:37.799Z,-0.90
2023-04-03T01:11:06.071Z,-0.90
2023-04-03T01:13:35.233Z,-1.00
2023-04-03T01:16:04.418Z,-1.00
2023-04-03T01:18:33.060Z,-1.00
2023-04-03T01:21:16.679Z,-1.00
2023-04-03T01:23:53.747Z,-1.00
2023-04-03T01:26:22.418Z,-1.10
2023-04-03T01:28:52.375Z,-1.10
2023-04-03T01:31:23.294Z,-1.00
2023-04-03T01:33:53.176Z,-1.00
2023-04-03T01:36:22.566Z,-1.20
2023-04-03T01:38:51.077Z,-1.10
2023-04-03T01:41:19.516Z,-1.10
2023-04-03T01:43:50.182Z,-1.00
2023-04-03T01:46:18.403Z,-1.00
2023-04-03T01:48:46.592Z,-1.10
2023-04-03T01:51:16.342Z,-1.10
2023-04-03T01:53:46.086Z,-1.00
2023-04-03T01:56:16.598Z,-1.10
2023-04-03T01:58:44.751Z,-1.10
2023-04-03T02:01:13.054Z,-1.00
2023-04-03T02:03:41.455Z,-1.00
2023-04-03T02:06:10.634Z,-1.20
2023-04-03T02:08:43.859Z,-1.20
2023-04-03T02:11:14.577Z,-1.10
2023-04-03T02:13:42.706Z,-1.10
2023-04-03T02:16:11.385Z,-1.20
2023-04-03T02:18:39.777Z,-1.20
2023-04-03T02:21:08.075Z,-1.40
2023-04-03T02:23:37.754Z,-1.30
2023-04-03T02:26:09.002Z,-1.30
2023-04-03T02:28:37.285Z,-1.20
2023-04-03T02:31:09.231Z,-1.30
2023-04-03T02:33:37.970Z,-1.40
2023-04-03T02:36:09.466Z,-1.40
2023-04-03T02:38:38.108Z,-1.40
2023-04-03T02:41:09.374Z,-1.50
2023-04-03T02:43:37.756Z,-1.50
2023-04-03T02:46:06.528Z,-1.60
2023-04-03T02:48:36.881Z,-1.60
2023-04-03T02:51:05.114Z,-1.60
2023-04-03T02:53:33.233Z,-1.60
2023-04-03T02:56:01.644Z,-1.60
2023-04-03T02:58:31.440Z,-1.60
2023-04-03T03:00:59.572Z,-1.60
2023-04-03T03:03:27.737Z,-1.60
2023-04-03T03:06:03.211Z,-1.60
2023-04-03T03:08:31.458Z,-1.60
2023-04-03T03:11:01.615Z,-1.60
2023-04-03T03:13:31.492Z,-1.70
2023-04-03T03:15:59.714Z,-1.60
2023-04-03T03:18:27.985Z,-1.50
2023-04-03T03:20:56.796Z,-1.50
2023-04-03T03:23:25.669Z,-1.50
2023-04-03T03:25:56.789Z,-1.60
2023-04-03T03:28:24.956Z,-1.70
2023-04-03T03:30:54.598Z,-1.80
2023-04-03T03:33:22.964Z,-1.80
2023-04-03T03:35:51.689Z,-1.80
2023-04-03T03:38:20.177Z,-1.80
2023-04-03T03:40:49.359Z,-1.80
2023-04-03T03:43:17.703Z,-1.80
2023-04-03T03:45:46.736Z,-1.80
2023-04-03T03:48:18.692Z,-1.80
2023-04-03T03:50:47.055Z,-1.70
2023-04-03T03:53:15.991Z,-1.70
2023-04-03T03:55:44.428Z,-1.70
2023-04-03T03:58:12.702Z,-1.70
2023-04-03T04:00:40.802Z,-1.60
2023-04-03T04:03:09.099Z,-1.60
2023-04-03T04:05:39.391Z,-1.80
2023-04-03T04:08:07.925Z,-1.70
2023-04-03T04:10:36.270Z,-1.60
2023-04-03T04:13:04.745Z,-1.60
2023-04-03T04:15:32.846Z,-1.70
2023-04-03T04:18:01.043Z,-1.70
2023-04-03T04:20:29.307Z,-1.70
2023-04-03T04:22:58.867Z,-1.80
2023-04-03T04:25:27.146Z,-1.70
2023-04-03T04:27:55.300Z,-1.70
2023-04-03T04:30:23.441Z,-1.70
2023-04-03T04:32:51.939Z,-1.60
2023-04-03T04:35:22.742Z,-1.60
2023-04-03T04:37:51.279Z,-1.60
2023-04-03T04:40:21.232Z,-1.70
2023-04-03T04:42:49.400Z,-1.50
2023-04-03T04:45:17.686Z,-1.40
2023-04-03T04:47:46.100Z,-1.40
2023-04-03T04:50:14.240Z,-1.40
2023-04-03T04:52:42.466Z,-1.50
2023-04-03T04:55:11.017Z,-1.50
2023-04-03T04:57:40.763Z,-1.40
2023-04-03T05:00:09.531Z,-1.30
2023-04-03T05:02:39.677Z,-1.30
2023-04-03T05:05:08.321Z,-1.40
2023-04-03T05:07:37.106Z,-1.40
2023-04-03T05:10:05.585Z,-1.40
2023-04-03T05:12:34.042Z,-1.20
2023-04-03T05:15:03.768Z,-1.20
2023-04-03T05:17:32.395Z,-1.30
2023-04-03T05:20:00.649Z,-1.20
2023-04-03T05:22:28.771Z,-1.20
2023-04-03T05:24:57.124Z,-1.20
2023-04-03T05:27:25.926Z,-1.00
2023-04-03T05:29:54.877Z,-1.10
2023-04-03T05:32:24.703Z,-1.00
2023-04-03T05:34:53.122Z,-0.90
2023-04-03T05:37:21.463Z,-1.00
2023-04-03T05:39:49.741Z,-0.80
2023-04-03T05:42:19.412Z,-0.70
2023-04-03T05:44:51.417Z,-0.50
2023-04-03T05:47:19.564Z,-0.50
2023-04-03T05:49:49.205Z,-0.50
2023-04-03T05:52:25.133Z,-0.40
2023-04-03T05:54:53.564Z,-0.40
2023-04-03T05:57:22.043Z,-0.30
2023-04-03T05:59:50.789Z,-0.20
2023-04-03T06:02:19.782Z,0.00
2023-04-03T06:04:50.156Z,0.10
2023-04-03T06:07:20.600Z,0.60
2023-04-03T06:09:49.140Z,0.10
2023-04-03T06:12:18.360Z,0.20
2023-04-03T06:14:46.700Z,0.10
2023-04-03T06:17:15.063Z,0.30
2023-04-03T06:19:45.795Z,0.30
2023-04-03T06:22:15.837Z,0.40
2023-04-03T06:24:44.840Z,0.40
2023-04-03T06:27:13.473Z,0.50
2023-04-03T06:29:41.643Z,0.60
2023-04-03T06:32:09.933Z,0.70
2023-04-03T06:34:38.495Z,0.80
2023-04-03T06:37:06.632Z,0.90
2023-04-03T06:39:36.225Z,0.80
2023-04-03T06:42:04.581Z,0.90
2023-04-03T06:44:34.923Z,1.00
2023-04-03T06:47:03.222Z,1.10
2023-04-03T06:49:31.692Z,1.10
2023-04-03T06:52:02.689Z,1.10
2023-04-03T06:54:31.277Z,1.00
2023-04-03T06:57:01.104Z,1.20
2023-04-03T06:59:29.537Z,1.10
2023-04-03T07:01:57.848Z,1.30
2023-04-03T07:04:26.084Z,1.20
2023-04-03T07:06:54.607Z,1.20
2023-04-03T07:09:22.753Z,1.10
2023-04-03T07:11:50.928Z,1.00
2023-04-03T07:14:20.657Z,1.00
2023-04-03T07:16:48.869Z,1.20
2023-04-03T07:19:17.079Z,1.20
2023-04-03T07:21:48.347Z,1.40
2023-04-03T07:24:16.957Z,1.20
2023-04-03T07:26:47.199Z,1.20
2023-04-03T07:29:15.754Z,1.40
2023-04-03T07:31:45.850Z,1.30
2023-04-03T07:34:14.277Z,1.20
2023-04-03T07:36:42.758Z,1.60
2023-04-03T07:39:10.962Z,1.60
2023-04-03T07:41:39.364Z,1.40
2023-04-03T07:44:11.072Z,1.50
2023-04-03T07:46:39.307Z,1.30
2023-04-03T07:49:08.866Z,1.30
2023-04-03T07:51:37.125Z,1.40
2023-04-03T07:54:05.418Z,1.60
2023-04-03T07:56:34.594Z,1.70
2023-04-03T07:59:03.019Z,1.90
2023-04-03T08:01:33.594Z,1.90
2023-04-03T08:04:02.317Z,1.80
2023-04-03T08:06:45.857Z,1.60
2023-04-03T08:09:15.497Z,1.80
2023-04-03T08:11:44.022Z,1.80
2023-04-03T08:14:16.745Z,1.90
2023-04-03T08:16:45.107Z,1.50
2023-04-03T08:19:22.288Z,1.50
2023-04-03T08:21:55.549Z,1.80
2023-04-03T08:24:23.806Z,2.10
2023-04-03T08:26:52.201Z,1.70
2023-04-03T08:29:22.335Z,1.60
2023-04-03T08:31:51.348Z,1.60
2023-04-03T08:34:20.380Z,1.70
2023-04-03T08:36:48.797Z,2.00
2023-04-03T08:39:18.472Z,2.20
2023-04-03T08:41:48.876Z,1.90
2023-04-03T08:44:19.431Z,2.00
2023-04-03T08:46:58.823Z,1.90
2023-04-03T08:49:29.404Z,2.00
2023-04-03T08:51:58.476Z,2.50
2023-04-03T08:54:30.421Z,2.50
2023-04-03T08:57:00.503Z,2.30
2023-04-03T08:59:30.349Z,2.50
2023-04-03T09:02:00.195Z,2.20
2023-04-03T09:04:29.707Z,2.10
2023-04-03T09:07:01.146Z,1.90
2023-04-03T09:09:34.815Z,2.20
2023-04-03T09:12:10.424Z,2.40
2023-04-03T09:14:40.495Z,2.80
2023-04-03T09:17:16.472Z,2.90
2023-04-03T09:19:50.276Z,2.90
2023-04-03T09:22:20.098Z,3.00
2023-04-03T09:24:52.561Z,2.20
2023-04-03T09:27:20.907Z,2.60
2023-04-03T09:29:49.147Z,2.90
2023-04-03T09:32:21.714Z,2.40
2023-04-03T09:34:51.667Z,2.90
2023-04-03T09:37:34.652Z,3.00
2023-04-03T09:40:05.491Z,2.80
2023-04-03T09:42:34.321Z,2.60
2023-04-03T09:45:03.269Z,3.00
2023-04-03T09:47:34.280Z,3.10
2023-04-03T09:50:11.964Z,3.00
2023-04-03T09:52:40.577Z,3.00
2023-04-03T09:55:11.038Z,3.10
2023-04-03T09:57:39.256Z,2.90
2023-04-03T10:00:12.054Z,2.60
2023-04-03T10:02:41.249Z,2.90
2023-04-03T10:05:24.331Z,3.20
2023-04-03T10:07:58.283Z,3.30
2023-04-03T10:10:33.169Z,3.00
2023-04-03T10:13:09.294Z,3.10
2023-04-03T10:15:41.663Z,3.40
2023-04-03T10:20:48.299Z,3.10
2023-04-03T10:23:21.101Z,3.40
2023-04-03T10:25:58.564Z,3.90
2023-04-03T10:28:30.063Z,3.80
2023-04-03T10:31:01.135Z,4.00
2023-04-03T10:33:35.502Z,3.80
2023-04-03T10:36:12.969Z,3.60
2023-04-03T10:38:45.521Z,3.90
2023-04-03T10:41:18.814Z,3.90
2023-04-03T10:43:52.048Z,3.90
2023-04-03T10:46:23.614Z,3.60
2023-04-03T10:48:57.185Z,3.70
2023-04-03T10:51:28.303Z,3.60
2023-04-03T10:53:59.343Z,3.80
2023-04-03T10:56:40.134Z,3.50
2023-04-03T10:59:22.653Z,3.80
2023-04-03T11:01:53.009Z,3.50
2023-04-03T11:04:23.587Z,4.20
2023-04-03T11:06:58.250Z,4.20
2023-04-03T11:09:28.751Z,3.80
2023-04-03T11:12:02.744Z,4.00
2023-04-03T11:14:32.780Z,4.30
2023-04-03T11:17:06.834Z,4.40
2023-04-03T11:19:38.033Z,4.10
2023-04-03T11:22:10.829Z,4.50
2023-04-03T11:24:41.155Z,4.50
2023-04-03T11:27:14.218Z,4.60
2023-04-03T11:29:43.406Z,4.10
2023-04-03T11:32:17.320Z,4.20
2023-04-03T11:34:46.967Z,3.70
2023-04-03T11:37:19.632Z,3.70
2023-04-03T11:39:52.379Z,3.50
2023-04-03T11:42:27.590Z,4.00
2023-04-03T11:45:10.640Z,4.00
2023-04-03T11:47:49.624Z,4.60
2023-04-03T11:50:34.217Z,4.90
2023-04-03T11:53:03.834Z,4.50
2023-04-03T11:55:54.245Z,4.40
2023-04-03T11:58:24.331Z,4.10
2023-04-03T12:00:55.122Z,4.30
2023-04-03T12:03:53.402Z,4.30
2023-04-03T12:06:40.010Z,3.70
2023-04-03T12:09:24.028Z,4.00
2023-04-03T12:11:52.493Z,4.30
2023-04-03T12:14:24.300Z,4.70
2023-04-03T12:16:53.612Z,4.90
2023-04-03T12:19:43.159Z,5.00
2023-04-03T12:22:16.366Z,4.80
2023-04-03T12:24:46.367Z,4.90
2023-04-03T12:27:35.567Z,4.90
2023-04-03T12:30:18.435Z,4.70
2023-04-03T12:33:02.341Z,4.00
2023-04-03T12:35:39.646Z,4.60
2023-04-03T12:38:25.312Z,4.80
2023-04-03T12:40:55.840Z,4.90
2023-04-03T12:43:38.652Z,3.70
2023-04-03T12:46:14.134Z,4.50
2023-04-03T12:48:49.849Z,3.10
2023-04-03T12:51:23.194Z,3.60
2023-04-03T12:53:52.247Z,4.50
2023-04-03T12:56:21.622Z,4.90
2023-04-03T12:58:49.983Z,4.90
2023-04-03T13:01:21.781Z,4.80
2023-04-03T13:03:51.453Z,4.80
2023-04-03T13:06:21.861Z,3.60
2023-04-03T13:08:53.716Z,4.40
2023-04-03T13:11:23.227Z,4.80
2023-04-03T13:13:58.466Z,5.00
2023-04-03T13:16:28.265Z,5.00
2023-04-03T13:18:57.039Z,3.80
2023-04-03T13:21:26.926Z,3.90
2023-04-03T13:24:07.173Z,4.00
2023-04-03T13:26:42.952Z,4.90
2023-04-03T13:29:29.842Z,4.60
2023-04-03T13:32:01.561Z,4.40
2023-04-03T13:34:32.505Z,4.20
2023-04-03T13:37:04.292Z,4.90
2023-04-03T13:39:33.518Z,5.20
2023-04-03T13:42:03.851Z,5.00
2023-04-03T13:44:33.776Z,5.20
2023-04-03T13:47:15.993Z,5.40
2023-04-03T13:49:45.189Z,5.00
2023-04-03T13:52:31.924Z,4.20
2023-04-03T13:55:02.156Z,5.00
2023-04-03T13:57:31.525Z,5.30
2023-04-03T13:59:59.789Z,5.50
2023-04-03T14:02:33.604Z,3.80
2023-04-03T14:05:11.412Z,3.00
2023-04-03T14:07:39.999Z,3.00
2023-04-03T14:10:08.750Z,4.50
2023-04-03T14:12:38.560Z,4.50
2023-04-03T14:15:10.188Z,4.60
2023-04-03T14:17:39.870Z,4.60
2023-04-03T14:20:08.983Z,4.80
2023-04-03T14:22:37.222Z,5.00
2023-04-03T14:25:05.885Z,4.60
2023-04-03T14:27:36.054Z,3.80
2023-04-03T14:30:07.204Z,4.20
2023-04-03T14:32:36.029Z,4.10
2023-04-03T14:35:07.908Z,4.10
2023-04-03T14:37:36.685Z,4.70
2023-04-03T14:40:06.193Z,4.70
2023-04-03T14:42:35.738Z,5.10
2023-04-03T14:45:06.091Z,4.00
2023-04-03T14:47:34.712Z,4.50
2023-04-03T14:50:03.366Z,4.20
2023-04-03T14:52:34.351Z,4.80
2023-04-03T14:55:03.157Z,5.20
2023-04-03T14:57:34.446Z,5.00
2023-04-03T15:00:05.353Z,4.70
2023-04-03T15:02:36.008Z,5.00
2023-04-03T15:05:06.505Z,4.60
2023-04-03T15:07:37.191Z,3.90
2023-04-03T15:10:09.605Z,4.10
2023-04-03T15:12:37.871Z,4.80
2023-04-03T15:15:06.467Z,3.90
2023-04-03T15:17:36.058Z,3.50
2023-04-03T15:20:05.793Z,3.00
2023-04-03T15:22:34.083Z,4.10
2023-04-03T15:25:06.406Z,4.70
2023-04-03T15:27:34.639Z,4.20
2023-04-03T15:30:02.959Z,4.60
2023-04-03T15:32:32.470Z,4.20
2023-04-03T15:35:00.994Z,4.80
2023-04-03T15:37:29.139Z,3.60
2023-04-03T15:39:57.302Z,3.20
2023-04-03T15:42:27.062Z,3.40
2023-04-03T15:44:55.297Z,3.50
2023-04-03T15:47:23.462Z,3.30
2023-04-03T15:49:51.661Z,2.60
2023-04-03T15:52:20.023Z,2.80
2023-04-03T15:54:48.226Z,2.70
2023-04-03T15:57:16.525Z,2.10
2023-04-03T15:59:46.282Z,1.90
2023-04-03T16:02:15.005Z,1.90
2023-04-03T16:04:43.579Z,2.00
2023-04-03T16:07:13.896Z,2.00
2023-04-03T16:09:44.840Z,2.50
2023-04-03T16:12:13.050Z,2.90
2023-04-03T16:14:41.242Z,2.70
2023-04-03T16:17:11.383Z,2.40
2023-04-03T16:19:39.673Z,2.60
2023-04-03T16:22:07.884Z,2.70
2023-04-03T16:24:36.842Z,3.40
2023-04-03T16:27:05.080Z,3.50
2023-04-03T16:29:34.799Z,2.80
2023-04-03T16:32:03.725Z,2.90
2023-04-03T16:34:34.025Z,2.80
2023-04-03T16:37:02.246Z,2.80
2023-04-03T16:39:30.591Z,2.70
2023-04-03T16:41:58.740Z,2.10
2023-04-03T16:44:27.252Z,2.20
2023-04-03T16:46:55.513Z,1.70
2023-04-03T16:49:23.903Z,1.60
2023-04-03T16:51:53.691Z,1.20
2023-04-03T16:54:24.226Z,1.40
2023-04-03T16:56:55.130Z,1.30
2023-04-03T16:59:23.403Z,1.30
2023-04-03T17:01:51.795Z,1.60
2023-04-03T17:04:27.476Z,1.30
2023-04-03T17:06:57.301Z,0.90
2023-04-03T17:09:25.528Z,0.90
2023-04-03T17:11:54.524Z,1.10
2023-04-03T17:14:22.696Z,1.00
2023-04-03T17:16:52.028Z,1.10
2023-04-03T17:19:20.279Z,1.10
2023-04-03T17:21:48.462Z,1.30
2023-04-03T17:24:18.131Z,1.40
2023-04-03T17:26:46.549Z,1.20
2023-04-03T17:29:14.851Z,0.90
2023-04-03T17:31:43.092Z,1.10
2023-04-03T17:34:12.318Z,0.90
2023-04-03T17:36:41.346Z,1.00
2023-04-03T17:39:11.949Z,0.90
2023-04-03T17:41:42.001Z,0.70
2023-04-03T17:44:10.259Z,0.70
2023-04-03T17:46:38.501Z,0.70
2023-04-03T17:49:06.858Z,0.80
2023-04-03T17:51:35.147Z,0.70
2023-04-03T17:54:03.409Z,0.70
2023-04-03T17:56:31.670Z,0.70
2023-04-03T17:59:01.409Z,0.60
2023-04-03T18:01:30.366Z,0.50
2023-04-03T18:03:59.224Z,0.40
2023-04-03T18:06:28.761Z,0.40
2023-04-03T18:08:58.960Z,0.30
2023-04-03T18:11:29.755Z,0.30
2023-04-03T18:14:00.937Z,0.20
2023-04-03T18:16:32.131Z,0.10
2023-04-03T18:19:20.530Z,0.00
2023-04-03T18:21:48.634Z,-0.10
2023-04-03T18:24:18.122Z,-0.20
2023-04-03T18:26:47.861Z,-0.20
2023-04-03T18:29:16.662Z,-0.20
2023-04-03T18:31:49.150Z,-0.20
2023-04-03T18:34:17.450Z,-0.30
2023-04-03T18:36:46.664Z,-0.40
2023-04-03T18:39:14.997Z,-0.40
2023-04-03T18:41:43.638Z,-0.50
2023-04-03T18:44:13.933Z,-0.60
2023-04-03T18:46:42.452Z,-0.60
2023-04-03T18:49:12.423Z,-0.70
2023-04-03T18:51:40.896Z,-0.70
2023-04-03T18:54:10.231Z,-0.80
2023-04-03T18:56:38.689Z,-0.90
2023-04-03T18:59:06.934Z,-0.90
2023-04-03T19:01:35.697Z,-1.00
2023-04-03T19:04:04.113Z,-1.00
2023-04-03T19:06:33.943Z,-1.10
2023-04-03T19:09:02.562Z,-1.10
2023-04-03T19:11:31.453Z,-1.10
2023-04-03T19:14:14.409Z,-1.20
2023-04-03T19:16:44.002Z,-1.30
2023-04-03T19:19:12.313Z,-1.40
2023-04-03T19:21:42.327Z,-1.50
2023-04-03T19:24:11.052Z,-1.50
2023-04-03T19:26:39.729Z,-1.60
2023-04-03T19:29:08.055Z,-1.60
2023-04-03T19:31:37.352Z,-1.60
2023-04-03T19:34:06.404Z,-1.60
2023-04-03T19:36:34.964Z,-1.70
2023-04-03T19:39:04.662Z,-1.70
2023-04-03T19:41:34.270Z,-1.90
2023-04-03T19:44:02.456Z,-1.90
2023-04-03T19:46:31.119Z,-1.90
2023-04-03T19:48:59.307Z,-2.00
2023-04-03T19:51:27.793Z,-2.00
2023-04-03T19:53:57.137Z,-2.10
2023-04-03T19:56:27.331Z,-2.30
2023-04-03T19:58:55.469Z,-2.30
2023-04-03T20:01:24.350Z,-2.30
2023-04-03T20:03:52.827Z,-2.40
2023-04-03T20:06:21.777Z,-2.40
2023-04-03T20:08:50.479Z,-2.50
2023-04-03T20:11:21.178Z,-2.50
2023-04-03T20:13:51.832Z,-2.60
2023-04-03T20:16:22.562Z,-2.60
2023-04-03T20:18:52.456Z,-2.60
2023-04-03T20:21:20.821Z,-2.60
2023-04-03T20:23:50.135Z,-2.70
2023-04-03T20:26:23.588Z,-2.70
2023-04-03T20:28:53.452Z,-2.80
2023-04-03T20:31:21.876Z,-2.80
2023-04-03T20:33:50.615Z,-2.80
2023-04-03T20:36:20.038Z,-2.90
2023-04-03T20:38:49.174Z,-2.90
2023-04-03T20:41:17.685Z,-3.00
2023-04-03T20:43:46.412Z,-3.00
2023-04-03T20:46:19.819Z,-3.00
2023-04-03T20:48:51.554Z,-3.00
2023-04-03T20:51:21.103Z,-3.20
2023-04-03T20:53:49.567Z,-3.30
2023-04-03T20:56:18.028Z,-3.30
2023-04-03T20:58:47.358Z,-3.30
2023-04-03T21:01:18.400Z,-3.30
2023-04-03T21:03:47.515Z,-3.30
2023-04-03T21:06:34.311Z,-3.40
2023-04-03T21:09:21.053Z,-3.50
2023-04-03T21:12:07.763Z,-3.50
2023-04-03T21:14:54.550Z,-3.50
2023-04-03T21:17:22.626Z,-3.60
2023-04-03T21:19:53.462Z,-3.70
2023-04-03T21:22:21.933Z,-3.60
2023-04-03T21:24:50.115Z,-3.60
2023-04-03T21:27:18.505Z,-3.60
2023-04-03T21:29:46.762Z,-3.60
2023-04-03T21:32:20.399Z,-3.70
2023-04-03T21:34:50.989Z,-3.90
2023-04-03T21:37:20.554Z,-3.80
2023-04-03T21:39:48.826Z,-3.80
2023-04-03T21:42:17.236Z,-4.00
2023-04-03T21:44:45.419Z,-3.80
2023-04-03T21:47:13.778Z,-3.90
2023-04-03T21:49:41.860Z,-3.90
2023-04-03T21:52:10.019Z,-3.80
2023-04-03T21:54:39.772Z,-3.80
2023-04-03T21:57:10.697Z,-3.90
2023-04-03T21:59:39.237Z,-4.00
2023-04-03T22:02:15.166Z,-4.10
2023-04-03T22:04:43.414Z,-4.00
2023-04-03T22:07:11.627Z,-4.10
2023-04-03T22:09:41.433Z,-4.20
2023-04-03T22:12:12.569Z,-4.30
2023-04-03T22:14:41.292Z,-4.30
2023-04-03T22:17:09.633Z,-4.20
2023-04-03T22:19:38.102Z,-4.20
2023-04-03T22:22:06.294Z,-4.30
2023-04-03T22:24:34.530Z,-4.50
2023-04-03T22:27:04.270Z,-4.50
2023-04-03T22:29:32.476Z,-4.60
2023-04-03T22:32:00.743Z,-4.50
2023-04-03T22:34:29.034Z,-4.50
2023-04-03T22:36:57.229Z,-4.50
2023-04-03T22:39:25.417Z,-4.60
2023-04-03T22:41:53.755Z,-4.50
2023-04-03T22:44:24.363Z,-4.50
2023-04-03T22:46:53.947Z,-4.70
2023-04-03T22:49:22.761Z,-4.60
2023-04-03T22:51:51.125Z,-4.70
2023-04-03T22:54:19.442Z,-4.60
2023-04-03T22:56:47.695Z,-4.60
2023-04-03T22:59:16.389Z,-4.60
2023-04-03T23:01:46.008Z,-4.60
2023-04-03T23:04:14.326Z,-4.60
2023-04-03T23:06:42.984Z,-4.70
2023-04-03T23:09:11.187Z,-4.80
2023-04-03T23:11:39.348Z,-4.80
2023-04-03T23:14:07.726Z,-4.80
2023-04-03T23:16:36.073Z,-4.90
2023-04-03T23:19:05.652Z,-4.80
2023-04-03T23:21:34.341Z,-4.80
2023-04-03T23:24:02.518Z,-5.00
2023-04-03T23:26:30.774Z,-5.00
2023-04-03T23:28:58.946Z,-5.00
2023-04-03T23:31:27.382Z,-5.10
2023-04-03T23:33:55.729Z,-5.10
2023-04-03T23:36:25.464Z,-5.10
2023-04-03T23:38:57.037Z,-5.10
2023-04-03T23:41:25.382Z,-5.10
2023-04-03T23:43:53.887Z,-5.30
2023-04-03T23:46:24.919Z,-5.20
2023-04-03T23:48:53.055Z,-5.30
2023-04-03T23:51:21.675Z,-5.20
2023-04-03T23:53:51.567Z,-5.30
2023-04-03T23:56:19.757Z,-5.20
2023-04-03T23:58:48.268Z,-5.30
